createdAt,value
2022-08-21T00:01:42.513Z,31.35
2022-08-21T00:04:10.437Z,29.75
2022-08-21T00:06:38.808Z,30.90
2022-08-21T00:09:07.441Z,28.90
2022-08-21T00:11:36.188Z,27.77
2022-08-21T00:14:05.747Z,27.67
2022-08-21T00:16:33.431Z,27.08
2022-08-21T00:19:02.886Z,37.13
2022-08-21T00:21:31.010Z,28.90
2022-08-21T00:23:58.659Z,30.33
2022-08-21T00:26:26.317Z,29.88
2022-08-21T00:28:54.251Z,30.67
2022-08-21T00:31:23.394Z,32.00
2022-08-21T00:33:51.006Z,31.30
2022-08-21T00:36:18.625Z,44.72
2022-08-21T00:38:46.699Z,27.90
2022-08-21T00:41:36.603Z,28.88
2022-08-21T00:44:02.161Z,40.47
2022-08-21T00:46:30.228Z,35.58
2022-08-21T00:48:59.048Z,38.60
2022-08-21T00:51:41.076Z,30.85
2022-08-21T00:54:11.627Z,37.17
2022-08-21T00:56:49.809Z,24.25
2022-08-21T00:59:19.407Z,28.58
2022-08-21T01:01:47.352Z,33.28
2022-08-21T01:04:14.989Z,31.58
2022-08-21T01:06:42.571Z,35.42
2022-08-21T01:09:10.192Z,28.25
2022-08-21T01:11:37.799Z,28.25
2022-08-21T01:14:05.486Z,33.70
2022-08-21T01:16:33.141Z,32.47
2022-08-21T01:19:00.794Z,33.70
2022-08-21T01:21:29.186Z,33.83
2022-08-21T01:23:58.112Z,36.47
2022-08-21T01:26:33.893Z,28.40
2022-08-21T01:29:13.364Z,35.08
2022-08-21T01:31:41.099Z,29.08
2022-08-21T01:34:09.011Z,27.73
2022-08-21T01:36:37.491Z,32.88
2022-08-21T01:39:05.432Z,27.55
2022-08-21T01:41:33.791Z,36.38
2022-08-21T01:44:01.415Z,38.80
2022-08-21T01:46:29.764Z,30.73
2022-08-21T01:48:57.388Z,23.38
2022-08-21T01:51:25.576Z,31.95
2022-08-21T01:53:53.228Z,33.65
2022-08-21T01:56:21.081Z,30.63
2022-08-21T01:58:48.950Z,37.25
2022-08-21T02:01:16.822Z,25.63
2022-08-21T02:03:44.766Z,31.52
2022-08-21T02:06:14.981Z,35.88
2022-08-21T02:08:42.721Z,30.20
2022-08-21T02:11:10.454Z,28.50
2022-08-21T02:13:38.450Z,37.47
2022-08-21T02:16:06.925Z,24.80
2022-08-21T02:18:34.777Z,38.30
2022-08-21T02:21:02.679Z,30.42
2022-08-21T02:23:30.552Z,33.28
2022-08-21T02:25:59.338Z,38.05
2022-08-21T02:28:27.663Z,26.70
2022-08-21T02:30:55.704Z,32.55
2022-08-21T02:33:24.059Z,41.20
2022-08-21T02:35:53.024Z,33.83
2022-08-21T02:38:23.448Z,32.40
2022-08-21T02:40:51.779Z,25.77
2022-08-21T02:43:20.514Z,31.77
2022-08-21T02:45:48.976Z,31.35
2022-08-21T02:48:19.145Z,33.53
2022-08-21T02:51:08.242Z,33.33
2022-08-21T02:53:36.079Z,34.45
2022-08-21T02:56:05.787Z,38.33
2022-08-21T02:58:35.788Z,33.58
2022-08-21T03:01:04.132Z,37.55
2022-08-21T03:03:31.949Z,30.52
2022-08-21T03:05:59.556Z,35.00
2022-08-21T03:08:27.641Z,27.60
2022-08-21T03:10:55.726Z,37.38
2022-08-21T03:13:24.709Z,34.05
2022-08-21T03:15:52.246Z,33.50
2022-08-21T03:18:21.082Z,30.85
2022-08-21T03:20:48.789Z,36.75
2022-08-21T03:23:18.489Z,37.85
2022-08-21T03:25:49.556Z,30.90
2022-08-21T03:28:23.079Z,40.00
2022-08-21T03:30:52.113Z,26.95
2022-08-21T03:33:20.740Z,43.15
2022-08-21T03:38:26.796Z,30.38
2022-08-21T03:40:54.731Z,33.13
2022-08-21T03:43:22.486Z,27.77
2022-08-21T03:45:50.101Z,31.35
2022-08-21T03:48:20.655Z,25.90
2022-08-21T03:50:50.449Z,37.70
2022-08-21T03:53:18.255Z,25.67
2022-08-21T03:55:47.640Z,36.47
2022-08-21T03:58:17.558Z,31.67
2022-08-21T04:00:49.684Z,29.92
2022-08-21T04:03:17.669Z,39.58
2022-08-21T04:05:46.991Z,33.40
2022-08-21T04:08:15.321Z,31.33
2022-08-21T04:10:43.536Z,34.63
2022-08-21T04:13:12.338Z,31.63
2022-08-21T04:15:40.321Z,31.10
2022-08-21T04:18:10.005Z,33.22
2022-08-21T04:20:37.721Z,30.33
2022-08-21T04:23:05.276Z,28.08
2022-08-21T04:25:34.895Z,45.85
2022-08-21T04:28:03.205Z,36.65
2022-08-21T04:30:31.694Z,31.92
2022-08-21T04:32:59.502Z,38.33
2022-08-21T04:35:28.315Z,34.88
2022-08-21T04:37:56.028Z,29.95
2022-08-21T04:40:25.862Z,38.65
2022-08-21T04:42:56.204Z,36.95
2022-08-21T04:45:35.364Z,33.47
2022-08-21T04:48:04.749Z,39.13
2022-08-21T04:50:44.159Z,40.20
2022-08-21T04:53:14.465Z,35.92
2022-08-21T04:55:43.126Z,33.97
2022-08-21T04:58:11.651Z,34.90
2022-08-21T05:00:39.936Z,36.83
2022-08-21T05:03:09.199Z,32.15
2022-08-21T05:05:37.664Z,34.75
2022-08-21T05:08:06.212Z,32.25
2022-08-21T05:10:33.913Z,34.72
2022-08-21T05:13:06.629Z,29.17
2022-08-21T05:15:34.319Z,43.13
2022-08-21T05:18:01.916Z,40.53
2022-08-21T05:20:30.159Z,48.30
2022-08-21T05:22:57.991Z,36.17
2022-08-21T05:25:26.247Z,31.95
2022-08-21T05:27:58.075Z,35.83
2022-08-21T05:30:28.642Z,42.88
2022-08-21T05:33:00.325Z,41.05
2022-08-21T05:35:28.781Z,27.35
2022-08-21T05:37:56.713Z,33.58
2022-08-21T05:40:24.888Z,27.60
2022-08-21T05:42:54.900Z,46.55
2022-08-21T05:45:42.694Z,38.97
2022-08-21T05:48:13.842Z,37.78
2022-08-21T05:50:42.181Z,42.00
2022-08-21T05:53:10.881Z,41.72
2022-08-21T05:55:44.201Z,49.60
2022-08-21T05:58:14.224Z,38.50
2022-08-21T06:00:43.019Z,42.38
2022-08-21T06:03:18.841Z,43.28
2022-08-21T06:05:46.801Z,47.72
2022-08-21T06:08:15.808Z,53.35
2022-08-21T06:10:43.653Z,53.92
2022-08-21T06:13:11.519Z,41.97
2022-08-21T06:15:39.965Z,42.72
2022-08-21T06:18:07.758Z,35.75
2022-08-21T06:20:35.454Z,61.53
2022-08-21T06:23:03.089Z,49.25
2022-08-21T06:25:30.889Z,67.50
2022-08-21T06:28:06.389Z,55.72
2022-08-21T06:30:34.117Z,56.60
2022-08-21T06:33:02.666Z,57.10
2022-08-21T06:35:30.656Z,54.63
2022-08-21T06:37:58.647Z,60.42
2022-08-21T06:40:27.727Z,70.03
2022-08-21T06:45:28.342Z,72.55
2022-08-21T06:48:00.565Z,83.35
2022-08-21T06:50:28.469Z,91.05
2022-08-21T06:53:09.348Z,70.90
2022-08-21T06:55:37.309Z,76.90
2022-08-21T06:58:08.495Z,79.53
2022-08-21T07:00:36.775Z,98.18
2022-08-21T07:03:05.411Z,93.18
2022-08-21T07:05:34.398Z,84.05
2022-08-21T07:08:05.383Z,80.95
2022-08-21T07:10:36.780Z,77.97
2022-08-21T07:13:06.606Z,83.20
2022-08-21T07:18:04.303Z,84.03
2022-08-21T07:20:32.717Z,66.95
2022-08-21T07:23:02.588Z,81.15
2022-08-21T07:25:30.752Z,70.43
2022-08-21T07:27:58.467Z,77.10
2022-08-21T07:30:26.193Z,72.65
2022-08-21T07:32:54.761Z,75.47
2022-08-21T07:35:22.641Z,81.78
2022-08-21T07:37:53.828Z,64.50
2022-08-21T07:40:21.845Z,84.95
2022-08-21T07:42:55.510Z,77.20
2022-08-21T07:45:25.578Z,76.00
2022-08-21T07:47:57.283Z,69.75
2022-08-21T07:50:28.381Z,76.50
2022-08-21T07:52:57.494Z,62.25
2022-08-21T07:55:25.329Z,74.25
2022-08-21T07:57:53.392Z,77.60
2022-08-21T08:00:25.565Z,76.18
2022-08-21T08:02:55.935Z,70.90
2022-08-21T08:05:26.200Z,67.78
2022-08-21T08:07:54.064Z,74.13
2022-08-21T08:10:22.133Z,77.60
2022-08-21T08:12:52.529Z,63.83
2022-08-21T08:15:22.576Z,76.37
2022-08-21T08:17:50.790Z,82.85
2022-08-21T08:20:19.720Z,61.72
2022-08-21T08:22:50.004Z,67.47
2022-08-21T08:25:18.383Z,65.40
2022-08-21T08:27:47.499Z,71.03
2022-08-21T08:30:16.844Z,67.53
2022-08-21T08:32:45.464Z,66.72
2022-08-21T08:35:13.469Z,74.38
2022-08-21T08:37:44.042Z,70.35
2022-08-21T08:40:20.219Z,73.97
2022-08-21T08:42:48.749Z,53.28
2022-08-21T08:45:23.920Z,68.38
2022-08-21T08:48:03.888Z,66.03
2022-08-21T08:50:40.763Z,66.38
2022-08-21T08:53:16.321Z,62.88
2022-08-21T08:55:45.525Z,74.72
2022-08-21T08:58:31.296Z,77.20
2022-08-21T09:01:00.598Z,74.22
2022-08-21T09:03:28.681Z,57.88
2022-08-21T09:06:18.556Z,59.67
2022-08-21T09:09:13.518Z,81.40
2022-08-21T09:12:19.052Z,75.80
2022-08-21T09:15:12.388Z,61.80
2022-08-21T09:18:15.386Z,72.53
2022-08-21T09:20:46.371Z,70.47
2022-08-21T09:23:26.743Z,73.75
2022-08-21T09:26:21.091Z,67.47
2022-08-21T09:28:54.536Z,56.45
2022-08-21T09:31:34.014Z,51.65
2022-08-21T09:34:03.482Z,50.17
2022-08-21T09:36:49.481Z,62.78
2022-08-21T09:39:40.308Z,51.88
2022-08-21T09:42:11.406Z,52.22
2022-08-21T09:44:44.523Z,61.13
2022-08-21T09:47:15.755Z,51.03
2022-08-21T09:49:44.071Z,46.22
2022-08-21T09:52:23.469Z,50.13
2022-08-21T09:54:54.064Z,51.35
2022-08-21T09:57:39.654Z,50.03
2022-08-21T10:00:17.896Z,43.75
2022-08-21T10:02:46.235Z,61.03
2022-08-21T10:05:24.651Z,60.70
2022-08-21T10:07:52.855Z,57.10
2022-08-21T10:10:27.676Z,59.25
2022-08-21T10:12:55.791Z,52.05
2022-08-21T10:15:57.697Z,40.03
2022-08-21T10:18:31.850Z,43.53
2022-08-21T10:21:17.926Z,46.88
2022-08-21T10:24:30.540Z,36.70
2022-08-21T10:27:17.188Z,41.30
2022-08-21T10:29:54.573Z,45.15
2022-08-21T10:32:25.930Z,42.28
2022-08-21T10:35:12.092Z,52.60
2022-08-21T10:38:39.386Z,42.85
2022-08-21T10:41:23.969Z,49.58
2022-08-21T10:44:25.470Z,32.45
2022-08-21T10:47:05.904Z,42.60
2022-08-21T10:49:41.203Z,48.20
2022-08-21T10:52:38.462Z,51.00
2022-08-21T10:55:18.392Z,34.97
2022-08-21T10:57:49.466Z,51.40
2022-08-21T11:00:21.196Z,41.72
2022-08-21T11:03:09.997Z,36.13
2022-08-21T11:05:51.313Z,28.13
2022-08-21T11:08:20.812Z,37.95
2022-08-21T11:13:55.404Z,27.85
2022-08-21T11:16:34.963Z,31.25
2022-08-21T11:19:20.197Z,31.80
2022-08-21T11:22:03.283Z,36.70
2022-08-21T11:25:04.969Z,33.20
2022-08-21T11:27:45.056Z,24.17
2022-08-21T11:30:13.272Z,23.53
2022-08-21T11:32:47.119Z,33.13
2022-08-21T11:35:21.141Z,33.58
2022-08-21T11:38:02.057Z,38.47
2022-08-21T11:40:52.653Z,31.30
2022-08-21T11:43:23.051Z,34.72
2022-08-21T11:45:55.653Z,26.55
2022-08-21T11:48:42.441Z,29.20
2022-08-21T11:51:17.394Z,28.35
2022-08-21T11:53:55.883Z,33.42
2022-08-21T11:56:26.817Z,38.72
2022-08-21T11:58:58.963Z,32.53
2022-08-21T12:01:29.138Z,39.92
2022-08-21T12:03:59.950Z,28.47
2022-08-21T12:07:00.490Z,32.40
2022-08-21T12:09:35.872Z,28.20
2022-08-21T12:12:15.517Z,32.75
2022-08-21T12:14:47.745Z,39.03
2022-08-21T12:17:23.615Z,31.75
2022-08-21T12:20:03.032Z,27.38
2022-08-21T12:22:39.580Z,32.20
2022-08-21T12:25:13.451Z,27.20
2022-08-21T12:27:49.284Z,21.40
2022-08-21T12:30:36.232Z,34.45
2022-08-21T12:33:08.296Z,21.67
2022-08-21T12:35:40.732Z,34.63
2022-08-21T12:38:17.586Z,31.58
2022-08-21T12:41:06.139Z,31.00
2022-08-21T12:43:45.233Z,35.47
2022-08-21T12:46:23.908Z,34.97
2022-08-21T12:49:01.743Z,31.15
2022-08-21T12:51:43.000Z,26.17
2022-08-21T12:54:11.138Z,23.00
2022-08-21T12:56:41.029Z,21.27
2022-08-21T12:59:12.730Z,35.08
2022-08-21T13:01:51.452Z,27.95
2022-08-21T13:04:35.583Z,27.35
2022-08-21T13:07:08.603Z,28.63
2022-08-21T13:09:36.814Z,24.85
2022-08-21T13:12:09.882Z,27.98
2022-08-21T13:14:45.407Z,22.60
2022-08-21T13:17:23.677Z,18.27
2022-08-21T13:19:55.578Z,21.80
2022-08-21T13:22:33.599Z,19.10
2022-08-21T13:27:35.861Z,28.13
2022-08-21T13:30:14.633Z,19.33
2022-08-21T13:32:45.143Z,17.17
2022-08-21T13:35:20.882Z,17.95
2022-08-21T13:37:53.076Z,20.90
2022-08-21T13:40:41.150Z,28.17
2022-08-21T13:43:34.604Z,13.18
2022-08-21T13:46:11.301Z,14.05
2022-08-21T13:48:39.980Z,21.15
2022-08-21T13:51:10.476Z,21.63
2022-08-21T13:53:53.705Z,17.33
2022-08-21T13:56:34.256Z,18.90
2022-08-21T13:59:06.071Z,16.05
2022-08-21T14:01:50.345Z,20.83
2022-08-21T14:04:22.188Z,32.08
2022-08-21T14:06:50.975Z,23.08
2022-08-21T14:09:43.492Z,19.65
2022-08-21T14:12:23.891Z,18.73
2022-08-21T14:14:52.047Z,20.55
2022-08-21T14:17:49.526Z,18.63
2022-08-21T14:20:32.097Z,12.43
2022-08-21T14:23:02.213Z,26.67
2022-08-21T14:25:44.225Z,20.75
2022-08-21T14:28:34.016Z,21.27
2022-08-21T14:31:35.802Z,24.08
2022-08-21T14:34:17.316Z,19.20
2022-08-21T14:36:48.806Z,18.13
2022-08-21T14:39:16.693Z,17.95
2022-08-21T14:41:47.067Z,31.17
2022-08-21T14:44:15.428Z,16.17
2022-08-21T14:46:55.348Z,19.10
2022-08-21T14:49:28.574Z,20.05
2022-08-21T14:51:58.802Z,18.40
2022-08-21T14:54:31.482Z,20.27
2022-08-21T14:57:01.813Z,24.30
2022-08-21T14:59:29.598Z,18.88
2022-08-21T15:01:57.407Z,17.67
2022-08-21T15:04:25.047Z,23.13
2022-08-21T15:06:53.335Z,20.67
2022-08-21T15:09:21.065Z,16.58
2022-08-21T15:11:48.849Z,22.27
2022-08-21T15:14:25.201Z,16.85
2022-08-21T15:16:53.134Z,16.55
2022-08-21T15:19:20.801Z,17.23
2022-08-21T15:21:49.635Z,20.88
2022-08-21T15:24:17.388Z,23.15
2022-08-21T15:26:45.278Z,20.48
2022-08-21T15:29:12.952Z,18.95
2022-08-21T15:32:04.891Z,19.10
2022-08-21T15:37:00.224Z,22.92
2022-08-21T15:39:31.334Z,22.67
2022-08-21T15:42:02.821Z,21.00
2022-08-21T15:44:42.827Z,14.43
2022-08-21T15:47:18.498Z,18.88
2022-08-21T15:49:46.575Z,19.60
2022-08-21T15:52:15.137Z,8.98
2022-08-21T15:54:43.028Z,14.13
2022-08-21T15:57:12.294Z,18.08
2022-08-21T15:59:46.598Z,17.35
2022-08-21T16:02:20.565Z,15.32
2022-08-21T16:04:48.319Z,13.00
2022-08-21T16:07:16.278Z,18.58
2022-08-21T16:09:43.986Z,13.30
2022-08-21T16:12:21.000Z,17.27
2022-08-21T16:14:48.695Z,14.30
2022-08-21T16:17:16.324Z,18.00
2022-08-21T16:19:43.974Z,17.55
2022-08-21T16:22:11.536Z,15.75
2022-08-21T16:24:39.356Z,10.10
2022-08-21T16:27:08.468Z,14.10
2022-08-21T16:29:36.912Z,18.65
2022-08-21T16:32:04.931Z,14.23
2022-08-21T16:34:32.706Z,12.98
2022-08-21T16:37:00.372Z,19.30
2022-08-21T16:39:28.204Z,15.07
2022-08-21T16:41:55.949Z,15.07
2022-08-21T16:44:23.654Z,14.98
2022-08-21T16:46:51.341Z,14.60
2022-08-21T16:49:19.368Z,17.90
2022-08-21T16:51:47.141Z,15.60
2022-08-21T16:54:15.971Z,13.40
2022-08-21T16:56:47.536Z,15.73
2022-08-21T16:59:17.524Z,14.27
2022-08-21T17:01:45.541Z,15.07
2022-08-21T17:04:13.434Z,13.57
2022-08-21T17:06:41.149Z,14.52
2022-08-21T17:09:08.771Z,21.67
2022-08-21T17:11:38.874Z,16.90
2022-08-21T17:14:15.549Z,15.35
2022-08-21T17:16:46.776Z,12.30
2022-08-21T17:19:14.959Z,12.32
2022-08-21T17:21:43.489Z,18.80
2022-08-21T17:24:13.326Z,19.05
2022-08-21T17:26:42.022Z,22.67
2022-08-21T17:29:10.447Z,21.48
2022-08-21T17:31:39.567Z,22.45
2022-08-21T17:34:07.302Z,16.17
2022-08-21T17:36:35.268Z,12.45
2022-08-21T17:39:03.761Z,21.77
2022-08-21T17:41:31.404Z,20.23
2022-08-21T17:43:59.448Z,17.52
2022-08-21T17:46:30.213Z,16.02
2022-08-21T17:48:57.832Z,21.73
2022-08-21T17:51:25.461Z,14.70
2022-08-21T17:53:53.596Z,19.50
2022-08-21T17:56:22.081Z,15.57
2022-08-21T17:58:51.099Z,16.85
2022-08-21T18:01:19.703Z,22.83
2022-08-21T18:03:48.050Z,28.25
2022-08-21T18:06:17.859Z,33.20
2022-08-21T18:08:46.550Z,24.98
2022-08-21T18:11:23.409Z,21.33
2022-08-21T18:13:53.210Z,15.65
2022-08-21T18:16:22.717Z,15.82
2022-08-21T18:18:52.381Z,17.17
2022-08-21T18:21:20.643Z,17.23
2022-08-21T18:23:49.662Z,13.93
2022-08-21T18:26:22.118Z,19.05
2022-08-21T18:28:49.902Z,15.73
2022-08-21T18:31:17.901Z,15.82
2022-08-21T18:33:57.653Z,18.20
2022-08-21T18:36:40.248Z,15.60
2022-08-21T18:39:34.797Z,19.23
2022-08-21T18:41:56.784Z,22.63
2022-08-21T18:44:25.159Z,20.50
2022-08-21T18:46:56.064Z,24.30
2022-08-21T18:49:23.676Z,19.45
2022-08-21T18:51:52.173Z,25.67
2022-08-21T18:54:19.917Z,28.15
2022-08-21T18:56:47.661Z,33.15
2022-08-21T18:59:15.381Z,27.92
2022-08-21T19:01:43.825Z,27.33
2022-08-21T19:04:40.962Z,35.13
2022-08-21T19:07:05.416Z,25.02
2022-08-21T19:09:33.909Z,23.80
2022-08-21T19:12:04.581Z,23.35
2022-08-21T19:14:34.754Z,41.50
2022-08-21T19:17:05.870Z,25.42
2022-08-21T19:19:34.564Z,31.63
2022-08-21T19:22:03.421Z,22.75
2022-08-21T19:24:31.629Z,20.15
2022-08-21T19:27:00.976Z,25.20
2022-08-21T19:29:35.037Z,18.75
2022-08-21T19:32:04.829Z,25.42
2022-08-21T19:34:32.654Z,24.63
2022-08-21T19:37:00.629Z,19.08
2022-08-21T19:39:28.236Z,22.55
2022-08-21T19:41:59.102Z,18.83
2022-08-21T19:44:28.506Z,20.55
2022-08-21T19:46:58.890Z,20.55
2022-08-21T19:49:33.294Z,24.83
2022-08-21T19:52:02.387Z,21.05
2022-08-21T19:54:40.922Z,28.25
2022-08-21T19:57:10.431Z,19.45
2022-08-21T19:59:38.883Z,16.25
2022-08-21T20:02:07.365Z,12.10
2022-08-21T20:04:35.384Z,24.13
2022-08-21T20:07:04.589Z,17.08
2022-08-21T20:09:37.704Z,20.48
2022-08-21T20:12:10.581Z,12.98
2022-08-21T20:14:45.314Z,17.33
2022-08-21T20:17:14.733Z,15.55
2022-08-21T20:19:44.790Z,14.52
2022-08-21T20:22:13.069Z,19.00
2022-08-21T20:24:42.626Z,10.93
2022-08-21T20:27:12.835Z,21.33
2022-08-21T20:29:41.806Z,23.75
2022-08-21T20:32:12.248Z,20.63
2022-08-21T20:34:41.873Z,21.17
2022-08-21T20:37:13.508Z,14.07
2022-08-21T20:39:50.269Z,13.85
2022-08-21T20:42:19.349Z,15.30
2022-08-21T20:44:48.215Z,13.65
2022-08-21T20:47:16.269Z,11.88
2022-08-21T20:49:48.960Z,13.70
2022-08-21T20:52:20.386Z,15.18
2022-08-21T20:54:56.209Z,13.85
2022-08-21T20:57:39.209Z,21.33
2022-08-21T21:00:17.785Z,17.35
2022-08-21T21:03:18.392Z,14.95
2022-08-21T21:06:06.281Z,17.88
2022-08-21T21:08:52.390Z,16.08
2022-08-21T21:11:44.294Z,13.75
2022-08-21T21:14:23.537Z,16.20
2022-08-21T21:16:59.434Z,15.68
2022-08-21T21:22:32.216Z,21.60
2022-08-21T21:25:17.121Z,18.90
2022-08-21T21:27:49.093Z,12.35
2022-08-21T21:30:25.096Z,20.42
2022-08-21T21:32:53.703Z,15.05
2022-08-21T21:38:53.710Z,18.42
2022-08-21T21:41:44.811Z,19.10
2022-08-21T21:44:28.178Z,20.58
2022-08-21T21:47:18.504Z,17.27
2022-08-21T21:50:23.912Z,17.80
2022-08-21T21:53:26.721Z,15.55
2022-08-21T21:59:39.723Z,18.83
2022-08-21T22:02:25.155Z,20.00
2022-08-21T22:05:06.829Z,20.23
2022-08-21T22:07:47.192Z,25.17
2022-08-21T22:10:42.905Z,16.70
2022-08-21T22:13:26.445Z,24.15
2022-08-21T22:15:57.688Z,16.52
2022-08-21T22:18:45.165Z,25.08
2022-08-21T22:21:25.073Z,19.27
2022-08-21T22:23:56.093Z,25.73
2022-08-21T22:26:28.500Z,29.75
2022-08-21T22:28:56.165Z,15.95
2022-08-21T22:31:26.557Z,25.08
2022-08-21T22:34:18.077Z,24.27
2022-08-21T22:36:59.865Z,29.65
2022-08-21T22:39:38.642Z,23.17
2022-08-21T22:42:10.871Z,27.25
2022-08-21T22:44:59.939Z,34.08
2022-08-21T22:47:41.589Z,28.08
2022-08-21T22:53:00.655Z,27.88
2022-08-21T22:55:43.958Z,28.42
2022-08-21T22:58:29.685Z,29.55
2022-08-21T23:01:02.718Z,28.38
2022-08-21T23:03:50.149Z,23.95
2022-08-21T23:06:43.018Z,24.75
2022-08-21T23:09:22.872Z,22.13
2022-08-21T23:11:51.024Z,36.90
2022-08-21T23:14:19.121Z,28.88
2022-08-21T23:17:16.437Z,20.35
2022-08-21T23:19:51.520Z,27.88
2022-08-21T23:22:22.157Z,40.95
2022-08-21T23:25:12.151Z,31.65
2022-08-21T23:28:19.816Z,30.98
2022-08-21T23:30:59.666Z,31.98
2022-08-21T23:33:39.946Z,24.17
2022-08-21T23:36:39.333Z,23.15
2022-08-21T23:39:28.414Z,29.77
2022-08-21T23:42:07.352Z,29.10
2022-08-21T23:44:47.243Z,32.65
2022-08-21T23:47:32.254Z,37.30
2022-08-21T23:50:21.794Z,29.40
2022-08-21T23:52:55.029Z,39.58
2022-08-21T23:55:53.328Z,30.42
2022-08-21T23:58:48.109Z,30.33
